Time;durP1;ratioP1;P1;durP2;ratioP2;P2;SDS_P1;SDS_P2;PMS_P1;PMS_P2;Temp;Humidity;BMP_temperature;BMP_pressure;BME280_temperature;BME280_humidity;BME280_pressure;Samples;Min_cycle;Max_cycle;Signal;HPM_P1;HPM_P2
2022/09/20 00:02:23;;;;;;;1.47;1.20;;;;;;;;;;6251301;28;20014;-75
2022/09/20 00:05:23;;;;;;;4.80;2.53;;;;;;;;;;6263170;28;20076;-75
2022/09/20 00:08:24;;;;;;;1.02;1.02;;;;;;;;;;6268842;28;20017;-75
2022/09/20 00:11:25;;;;;;;1.55;1.30;;;;;;;;;;6253384;28;20052;-75
2022/09/20 00:14:26;;;;;;;;;;;;;;;;;;6276079;28;20028;-75
2022/09/20 00:17:26;;;;;;;1.27;1.13;;;;;;;;;;6253528;28;19915;-75
2022/09/20 00:20:26;;;;;;;4.30;2.30;;;;;;;;;;6267719;28;20255;-75
2022/09/20 00:23:26;;;;;;;1.23;1.23;;;;;;;;;;6251223;28;20020;-75
2022/09/20 00:26:27;;;;;;;1.77;1.67;;;;;;;;;;6270812;28;20016;-75
2022/09/20 00:29:27;;;;;;;3.93;2.77;;;;;;;;;;6260918;28;20028;-75
2022/09/20 00:32:27;;;;;;;1.50;1.40;;;;;;;;;;6273739;28;20068;-75
2022/09/20 00:35:28;;;;;;;0.45;0.45;;;;;;;;;;6259922;28;20021;-74
2022/09/20 00:38:28;;;;;;;3.57;2.47;;;;;;;;;;6249360;28;20378;-74
2022/09/20 00:41:29;;;;;;;2.72;2.53;;;;;;;;;;6274665;28;20049;-74
2022/09/20 00:44:56;;;;;;;1.60;1.45;;;;;;;;;;6275794;28;20021;-74
2022/09/20 00:48:03;;;;;;;6.22;2.05;;;;;;;;;;6259374;28;20048;-73
2022/09/20 00:51:06;;;;;;;1.42;1.33;;;;;;;;;;6268834;28;20369;-74
2022/09/20 00:54:08;;;;;;;2.15;1.85;;;;;;;;;;6278157;28;20510;-74
2022/09/20 00:57:08;;;;;;;1.42;1.42;;;;;;;;;;6271811;28;20028;-74
2022/09/20 01:00:09;;;;;;;1.90;1.80;;;;;;;;;;6276392;28;20021;-74
2022/09/20 01:03:10;;;;;;;1.25;1.15;;;;;;;;;;6282172;28;20051;-74
2022/09/20 01:06:12;;;;;;;1.27;1.23;;;;;;;;;;6272821;28;20052;-73
2022/09/20 01:09:13;;;;;;;6.18;1.98;;;;;;;;;;6260485;28;20074;-74
2022/09/20 01:12:15;;;;;;;2.20;2.10;;;;;;;;;;6261665;28;20104;-73
2022/09/20 01:15:15;;;;;;;0.70;0.70;;;;;;;;;;6257468;28;20057;-73
2022/09/20 01:18:17;;;;;;;1.33;1.23;;;;;;;;;;6261820;28;20025;-73
2022/09/20 01:21:18;;;;;;;0.68;0.68;;;;;;;;;;6262474;28;20032;-73
2022/09/20 01:24:21;;;;;;;1.40;1.33;;;;;;;;;;6269041;28;20028;-73
2022/09/20 01:27:42;;;;;;;0.80;0.80;;;;;;;;;;6275810;28;20048;-74
2022/09/20 01:30:44;;;;;;;1.83;1.75;;;;;;;;;;6274188;28;20118;-74
2022/09/20 01:33:52;;;;;;;2.72;1.80;;;;;;;;;;6270459;28;20365;-72
2022/09/20 01:36:54;;;;;;;3.28;1.27;;;;;;;;;;6260049;28;20028;-73
2022/09/20 01:40:04;;;;;;;1.52;1.52;;;;;;;;;;6277907;28;20028;-74
2022/09/20 01:43:20;;;;;;;0.55;0.55;;;;;;;;;;6267960;28;20096;-73
2022/09/20 01:46:31;;;;;;;0.40;0.40;;;;;;;;;;6249407;28;20019;-73
2022/09/20 01:49:49;;;;;;;3.60;1.92;;;;;;;;;;6254552;28;20086;-73
2022/09/20 01:52:58;;;;;;;1.73;1.50;;;;;;;;;;6274836;28;20075;-73
2022/09/20 01:56:08;;;;;;;3.25;2.38;;;;;;;;;;6250389;28;20017;-74
2022/09/20 01:59:28;;;;;;;2.03;1.92;;;;;;;;;;6270587;28;20228;-73
2022/09/20 02:02:31;;;;;;;0.60;0.55;;;;;;;;;;6252411;28;20120;-73
2022/09/20 02:05:50;;;;;;;17.88;3.20;;;;;;;;;;6252095;28;20013;-73
2022/09/20 02:08:59;;;;;;;0.52;0.40;;;;;;;;;;6266126;28;20023;-73
2022/09/20 02:12:18;;;;;;;0.98;0.95;;;;;;;;;;6269574;28;21764;-73
2022/09/20 02:15:21;;;;;;;0.68;0.68;;;;;;;;;;6244674;28;20060;-74
2022/09/20 02:18:46;;;;;;;0.77;0.77;;;;;;;;;;6268535;28;20049;-74
2022/09/20 02:21:55;;;;;;;1.45;1.35;;;;;;;;;;6256302;28;20020;-74
2022/09/20 02:24:55;;;;;;;0.82;0.82;;;;;;;;;;6266974;28;20484;-74
2022/09/20 02:28:14;;;;;;;2.25;2.13;;;;;;;;;;6267308;28;20550;-74
2022/09/20 02:31:21;;;;;;;0.75;0.75;;;;;;;;;;6274306;28;20048;-73
2022/09/20 02:34:40;;;;;;;1.25;1.20;;;;;;;;;;6287933;28;20537;-74
2022/09/20 02:37:58;;;;;;;4.38;1.73;;;;;;;;;;6278321;28;20013;-74
2022/09/20 02:41:13;;;;;;;0.95;0.95;;;;;;;;;;6265390;28;20364;-74
2022/09/20 02:44:32;;;;;;;2.33;2.22;;;;;;;;;;6243270;28;20682;-74
2022/09/20 02:47:40;;;;;;;0.82;0.82;;;;;;;;;;6258630;28;20096;-74
2022/09/20 02:50:51;;;;;;;1.85;1.75;;;;;;;;;;6249581;28;20021;-75
2022/09/20 02:53:54;;;;;;;0.90;0.90;;;;;;;;;;6254675;28;20017;-74
2022/09/20 02:56:59;;;;;;;0.43;0.43;;;;;;;;;;6266343;28;20025;-74
2022/09/20 03:00:08;;;;;;;2.35;1.25;;;;;;;;;;6248702;28;20087;-74
2022/09/20 03:03:26;;;;;;;0.98;0.98;;;;;;;;;;6260779;28;20071;-74
2022/09/20 03:06:42;;;;;;;2.05;1.48;;;;;;;;;;6262876;28;20559;-74
2022/09/20 03:09:50;;;;;;;1.13;1.13;;;;;;;;;;6276199;28;20468;-73
2022/09/20 03:12:53;;;;;;;7.47;2.65;;;;;;;;;;6266998;28;20013;-74
2022/09/20 03:16:15;;;;;;;1.08;1.08;;;;;;;;;;6280589;28;20032;-74
2022/09/20 03:19:15;;;;;;;;;;;;;;;;;;6290470;28;20058;-74
2022/09/20 03:22:25;;;;;;;0.40;0.40;;;;;;;;;;6254163;28;19992;-74
2022/09/20 03:25:43;;;;;;;1.90;1.80;;;;;;;;;;6259321;28;20101;-74
2022/09/20 03:28:58;;;;;;;2.10;0.73;;;;;;;;;;6254392;28;20461;-74
2022/09/20 03:32:04;;;;;;;0.55;0.55;;;;;;;;;;6258180;28;20102;-74
2022/09/20 03:35:07;;;;;;;3.83;1.45;;;;;;;;;;6260578;28;20024;-74
2022/09/20 03:38:13;;;;;;;1.30;1.30;;;;;;;;;;6270483;28;20021;-74
2022/09/20 03:41:16;;;;;;;4.18;3.50;;;;;;;;;;6262459;28;20012;-74
2022/09/20 03:44:17;;;;;;;2.35;1.88;;;;;;;;;;6263307;28;20251;-74
2022/09/20 03:47:36;;;;;;;2.92;2.72;;;;;;;;;;6249665;28;20251;-74
2022/09/20 03:50:41;;;;;;;4.95;1.52;;;;;;;;;;6263735;28;20068;-73
2022/09/20 03:53:45;;;;;;;2.38;1.58;;;;;;;;;;6271593;28;20009;-75
2022/09/20 03:57:04;;;;;;;1.52;1.52;;;;;;;;;;6249757;28;20492;-74
2022/09/20 04:00:07;;;;;;;1.25;1.20;;;;;;;;;;6256076;28;20028;-74
2022/09/20 04:03:26;;;;;;;1.02;1.02;;;;;;;;;;6242984;28;20028;-75
2022/09/20 04:06:55;;;;;;;1.30;1.27;;;;;;;;;;6267743;28;20104;-74
2022/09/20 04:10:01;;;;;;;1.02;1.02;;;;;;;;;;6269699;28;20017;-75
2022/09/20 04:13:02;;;;;;;4.88;2.15;;;;;;;;;;6276634;28;20024;-74
2022/09/20 04:16:08;;;;;;;2.80;2.58;;;;;;;;;;6262388;28;20031;-74
2022/09/20 04:19:13;;;;;;;2.42;1.15;;;;;;;;;;6272326;28;20505;-74
2022/09/20 04:22:15;;;;;;;4.45;1.75;;;;;;;;;;6251452;28;20013;-75
2022/09/20 04:25:21;;;;;;;1.65;1.52;;;;;;;;;;6273234;28;20066;-75
2022/09/20 04:28:41;;;;;;;1.13;1.13;;;;;;;;;;6255286;28;20117;-75
2022/09/20 04:31:54;;;;;;;1.38;1.38;;;;;;;;;;6275818;28;20519;-74
2022/09/20 04:38:20;;;;;;;3.85;2.47;;;;;;;;;;6268767;28;20480;-75
2022/09/20 04:41:33;;;;;;;2.07;1.63;;;;;;;;;;6263029;28;20023;-75
2022/09/20 04:44:51;;;;;;;1.58;1.48;;;;;;;;;;6264613;28;20088;-75
2022/09/20 04:48:07;;;;;;;0.20;0.20;;;;;;;;;;6272827;28;20369;-75
2022/09/20 04:51:26;;;;;;;1.40;0.77;;;;;;;;;;6260791;28;20049;-75
2022/09/20 04:54:27;;;;;;;2.45;2.25;;;;;;;;;;6265294;28;20033;-75
2022/09/20 04:57:36;;;;;;;2.90;2.63;;;;;;;;;;6267963;28;20033;-75
2022/09/20 05:00:49;;;;;;;0.95;0.95;;;;;;;;;;6246888;28;20278;-75
2022/09/20 05:04:08;;;;;;;2.50;1.60;;;;;;;;;;6257049;28;20017;-75
2022/09/20 05:07:21;;;;;;;3.72;2.25;;;;;;;;;;6265061;28;20025;-75
2022/09/20 05:10:32;;;;;;;0.80;0.80;;;;;;;;;;6275936;28;20100;-75
2022/09/20 05:13:38;;;;;;;6.07;2.13;;;;;;;;;;6265137;28;20363;-75
2022/09/20 05:16:50;;;;;;;1.92;1.35;;;;;;;;;;6267536;28;20044;-74
2022/09/20 05:19:53;;;;;;;;;;;;;;;;;;6267484;28;20033;-74
2022/09/20 05:22:56;;;;;;;1.13;1.08;;;;;;;;;;6261885;28;20368;-74
2022/09/20 05:26:18;;;;;;;1.05;1.05;;;;;;;;;;6276209;28;20031;-75
2022/09/20 05:29:24;;;;;;;1.88;1.75;;;;;;;;;;6255849;28;20021;-75
2022/09/20 05:32:43;;;;;;;2.67;2.35;;;;;;;;;;6247650;28;20537;-75
2022/09/20 05:35:53;;;;;;;0.65;0.65;;;;;;;;;;6249559;28;20100;-74
2022/09/20 05:39:08;;;;;;;3.65;2.50;;;;;;;;;;6264491;28;20028;-75
2022/09/20 05:42:14;;;;;;;1.20;1.17;;;;;;;;;;6265024;28;20503;-74
2022/09/20 05:45:20;;;;;;;1.23;1.23;;;;;;;;;;6262752;28;20017;-75
2022/09/20 05:48:25;;;;;;;1.98;1.88;;;;;;;;;;6262658;28;20017;-75
2022/09/20 05:51:44;;;;;;;2.33;2.20;;;;;;;;;;6267461;28;20054;-74
2022/09/20 05:55:03;;;;;;;3.47;1.88;;;;;;;;;;6289165;28;20037;-75
2022/09/20 05:58:22;;;;;;;1.23;1.13;;;;;;;;;;6263717;28;20033;-75
2022/09/20 06:01:29;;;;;;;1.65;1.55;;;;;;;;;;6258183;28;20013;-74
2022/09/20 06:04:34;;;;;;;1.90;1.30;;;;;;;;;;6265774;28;20071;-74
2022/09/20 06:07:41;;;;;;;1.25;1.25;;;;;;;;;;6259860;28;20064;-75
2022/09/20 06:11:00;;;;;;;0.85;0.85;;;;;;;;;;6268469;28;20020;-75
2022/09/20 06:14:16;;;;;;;2.00;1.85;;;;;;;;;;6255757;28;20472;-75
2022/09/20 06:17:31;;;;;;;3.60;1.40;;;;;;;;;;6253507;28;20013;-75
2022/09/20 06:20:45;;;;;;;1.38;1.33;;;;;;;;;;6239849;28;20035;-75
2022/09/20 06:23:46;;;;;;;0.70;0.70;;;;;;;;;;6280971;28;20039;-75
2022/09/20 06:26:49;;;;;;;3.43;3.23;;;;;;;;;;6279001;28;20018;-75
2022/09/20 06:29:54;;;;;;;1.73;1.63;;;;;;;;;;6272946;28;20481;-75
2022/09/20 06:33:15;;;;;;;0.32;0.32;;;;;;;;;;6275849;28;20051;-74
2022/09/20 06:43:03;;;;;;;1.60;1.50;;;;;;;;;;6259304;28;20022;-75
2022/09/20 06:46:03;;;;;;;0.30;0.30;;;;;;;;;;6260817;28;20020;-74
2022/09/20 06:49:07;;;;;;;1.03;0.70;;;;;;;;;;6257458;28;20102;-75
2022/09/20 06:52:11;;;;;;;1.02;1.02;;;;;;;;;;6258791;28;20084;-75
2022/09/20 06:55:19;;;;;;;1.15;1.15;;;;;;;;;;6270008;28;20109;-75
2022/09/20 06:58:19;;;;;;;0.40;0.40;;;;;;;;;;6280508;28;20016;-75
2022/09/20 07:01:20;;;;;;;1.38;1.30;;;;;;;;;;6270262;28;20020;-75
2022/09/20 07:04:25;;;;;;;0.50;0.50;;;;;;;;;;6268014;28;20488;-75
2022/09/20 07:07:25;;;;;;;0.63;0.63;;;;;;;;;;6262722;28;20017;-75
2022/09/20 07:10:29;;;;;;;1.40;1.40;;;;;;;;;;6262994;28;20040;-75
2022/09/20 07:13:29;;;;;;;2.50;2.15;;;;;;;;;;6248415;28;20024;-75
2022/09/20 07:16:30;;;;;;;1.13;1.03;;;;;;;;;;6259132;28;20067;-75
2022/09/20 07:19:30;;;;;;;0.70;0.70;;;;;;;;;;6242677;28;20102;-75
2022/09/20 07:22:30;;;;;;;0.47;0.47;;;;;;;;;;6249347;28;20142;-75
2022/09/20 07:25:30;;;;;;;0.80;0.77;;;;;;;;;;6266090;28;20012;-75
2022/09/20 07:28:32;;;;;;;1.33;1.03;;;;;;;;;;6271994;28;20025;-75
2022/09/20 07:31:32;;;;;;;0.38;0.38;;;;;;;;;;6276711;28;20048;-75
2022/09/20 07:34:32;;;;;;;0.32;0.32;;;;;;;;;;6276826;28;20021;-75
2022/09/20 07:37:33;;;;;;;1.63;1.50;;;;;;;;;;6271129;28;20049;-76
2022/09/20 07:40:33;;;;;;;0.73;0.73;;;;;;;;;;6273347;28;20014;-75
2022/09/20 07:43:33;;;;;;;0.13;0.13;;;;;;;;;;6249381;28;20493;-75
2022/09/20 07:46:34;;;;;;;0.77;0.77;;;;;;;;;;6266661;28;20021;-75
2022/09/20 07:49:35;;;;;;;0.10;0.10;;;;;;;;;;6249037;28;20021;-75
2022/09/20 07:52:35;;;;;;;0.83;0.83;;;;;;;;;;6272896;28;20263;-76
2022/09/20 07:55:35;;;;;;;2.27;2.17;;;;;;;;;;6273231;28;20041;-75
2022/09/20 07:58:36;;;;;;;3.10;2.33;;;;;;;;;;6265294;28;20028;-75
2022/09/20 08:01:37;;;;;;;0.57;0.57;;;;;;;;;;6266913;28;20017;-76
2022/09/20 08:04:37;;;;;;;1.90;1.80;;;;;;;;;;6262240;28;20028;-76
2022/09/20 08:07:38;;;;;;;1.23;1.17;;;;;;;;;;6244938;28;20040;-75
2022/09/20 08:10:39;;;;;;;3.33;3.10;;;;;;;;;;6266090;28;20020;-75
2022/09/20 08:13:41;;;;;;;2.75;2.40;;;;;;;;;;6264194;28;20535;-75
2022/09/20 08:16:46;;;;;;;1.65;1.55;;;;;;;;;;6246837;28;20021;-75
2022/09/20 08:19:46;;;;;;;1.40;1.35;;;;;;;;;;6241774;28;20039;-75
2022/09/20 08:22:46;;;;;;;2.13;1.83;;;;;;;;;;6269120;28;20049;-76
2022/09/20 08:25:48;;;;;;;1.55;1.45;;;;;;;;;;6267379;28;20107;-76
2022/09/20 08:28:48;;;;;;;;;;;;;;;;;;6275554;28;20021;-76
2022/09/20 08:31:49;;;;;;;1.97;1.63;;;;;;;;;;6290403;28;19920;-76
2022/09/20 08:34:49;;;;;;;4.07;2.85;;;;;;;;;;6278874;28;20270;-76
2022/09/20 08:37:53;;;;;;;3.23;3.00;;;;;;;;;;6274164;28;20558;-76
2022/09/20 08:40:56;;;;;;;5.07;4.03;;;;;;;;;;6277711;28;20013;-75
2022/09/20 08:43:59;;;;;;;1.55;1.45;;;;;;;;;;6273591;28;20024;-75
2022/09/20 08:47:03;;;;;;;1.08;1.02;;;;;;;;;;6249560;28;20368;-76
2022/09/20 08:50:04;;;;;;;2.08;1.85;;;;;;;;;;6263883;28;20020;-76
2022/09/20 08:53:04;;;;;;;4.60;2.40;;;;;;;;;;6266959;28;20027;-76
2022/09/20 08:56:05;;;;;;;1.87;1.77;;;;;;;;;;6268183;28;20012;-76
2022/09/20 08:59:10;;;;;;;6.83;3.50;;;;;;;;;;6268529;28;20563;-76
2022/09/20 09:02:15;;;;;;;1.27;1.17;;;;;;;;;;6279050;28;20012;-76
2022/09/20 09:05:21;;;;;;;1.25;1.20;;;;;;;;;;6266412;28;20062;-76
2022/09/20 09:08:26;;;;;;;3.70;1.90;;;;;;;;;;6271699;28;20078;-76
2022/09/20 09:11:27;;;;;;;1.10;1.10;;;;;;;;;;6277957;28;20017;-76
2022/09/20 09:17:50;;;;;;;1.50;1.23;;;;;;;;;;6269279;28;20029;-76
2022/09/20 09:20:50;;;;;;;0.73;0.73;;;;;;;;;;6275860;28;20083;-76
2022/09/20 09:23:51;;;;;;;1.47;1.37;;;;;;;;;;6258859;28;20369;-77
2022/09/20 09:27:04;;;;;;;2.83;2.40;;;;;;;;;;6274681;28;20092;-76
2022/09/20 09:30:17;;;;;;;2.15;2.05;;;;;;;;;;6259363;28;20436;-76
2022/09/20 09:33:25;;;;;;;4.38;2.13;;;;;;;;;;6249734;28;20040;-76
2022/09/20 09:36:25;;;;;;;1.35;1.35;;;;;;;;;;6252105;28;20300;-76
2022/09/20 09:39:33;;;;;;;2.00;1.67;;;;;;;;;;6277926;28;20478;-77
2022/09/20 09:42:33;;;;;;;3.33;1.73;;;;;;;;;;6268171;28;20048;-76
2022/09/20 09:45:37;;;;;;;1.53;1.43;;;;;;;;;;6258597;28;20027;-73
2022/09/20 09:48:37;;;;;;;0.63;0.63;;;;;;;;;;6267535;28;20580;-73
2022/09/20 09:51:37;;;;;;;0.67;0.67;;;;;;;;;;6263380;28;20029;-73
2022/09/20 09:54:39;;;;;;;0.27;0.27;;;;;;;;;;6274579;28;20021;-74
2022/09/20 09:57:54;;;;;;;1.90;1.73;;;;;;;;;;6272269;28;20040;-74
2022/09/20 10:00:56;;;;;;;4.10;1.55;;;;;;;;;;6241212;28;20044;-74
2022/09/20 10:04:19;;;;;;;1.50;1.35;;;;;;;;;;6249070;28;20017;-74
2022/09/20 10:07:24;;;;;;;0.22;0.22;;;;;;;;;;6222051;28;20025;-75
2022/09/20 10:10:47;;;;;;;0.88;0.88;;;;;;;;;;6264039;28;20021;-74
2022/09/20 10:14:06;;;;;;;1.08;1.08;;;;;;;;;;6250243;28;20075;-73
2022/09/20 10:17:25;;;;;;;1.65;1.55;;;;;;;;;;6274521;28;20556;-73
2022/09/20 10:20:36;;;;;;;1.05;0.88;;;;;;;;;;6260336;28;20025;-74
2022/09/20 10:23:40;;;;;;;2.17;1.98;;;;;;;;;;6273430;28;20017;-75
2022/09/20 10:26:50;;;;;;;0.68;0.68;;;;;;;;;;6275738;28;20017;-75
2022/09/20 10:30:09;;;;;;;1.90;1.63;;;;;;;;;;6268398;28;20366;-75
2022/09/20 10:33:31;;;;;;;1.08;0.73;;;;;;;;;;6228572;28;20037;-75
2022/09/20 10:36:37;;;;;;;0.47;0.47;;;;;;;;;;6215518;28;20030;-76
2022/09/20 10:39:38;;;;;;;1.65;1.08;;;;;;;;;;6217916;28;20070;-76
2022/09/20 10:46:23;;;;;;;1.33;0.93;;;;;;;;;;6212004;28;20093;-74
2022/09/20 10:49:27;;;;;;;0.32;0.32;;;;;;;;;;6207241;28;20026;-73
2022/09/20 10:52:28;;;;;;;1.08;1.02;;;;;;;;;;6218065;28;20028;-74
2022/09/20 10:55:28;;;;;;;0.45;0.45;;;;;;;;;;6211593;28;20033;-73
2022/09/20 10:58:39;;;;;;;1.80;1.25;;;;;;;;;;6210191;28;20049;-75
2022/09/20 11:01:42;;;;;;;2.55;2.13;;;;;;;;;;6213468;28;20025;-74
2022/09/20 11:05:01;;;;;;;1.02;1.02;;;;;;;;;;6211579;28;20352;-75
2022/09/20 11:08:04;;;;;;;0.80;0.80;;;;;;;;;;6213970;28;20048;-74
2022/09/20 11:11:11;;;;;;;0.10;0.10;;;;;;;;;;6206961;28;20061;-74
2022/09/20 11:14:18;;;;;;;0.88;0.88;;;;;;;;;;6209813;28;20382;-74
2022/09/20 11:17:19;;;;;;;3.17;2.95;;;;;;;;;;6218022;28;20053;-72
2022/09/20 11:20:31;;;;;;;0.63;0.57;;;;;;;;;;6210048;28;20418;-72
2022/09/20 11:23:55;;;;;;;1.10;1.08;;;;;;;;;;6202658;28;20037;-73
2022/09/20 11:27:17;;;;;;;0.30;0.30;;;;;;;;;;6209518;28;20033;-74
2022/09/20 11:30:17;;;;;;;;;;;;;;;;;;6226045;28;20482;-75
2022/09/20 11:33:20;;;;;;;0.25;0.25;;;;;;;;;;6264262;28;20414;-74
2022/09/20 11:36:33;;;;;;;2.75;0.80;;;;;;;;;;6276495;28;20091;-74
2022/09/20 11:39:52;;;;;;;2.05;1.95;;;;;;;;;;6244649;28;20033;-74
2022/09/20 11:42:54;;;;;;;1.30;1.23;;;;;;;;;;6255084;28;20420;-74
2022/09/20 11:45:56;;;;;;;0.85;0.85;;;;;;;;;;6266048;28;20119;-74
2022/09/20 11:49:15;;;;;;;0.30;0.30;;;;;;;;;;6276392;28;20024;-75
2022/09/20 11:52:34;;;;;;;0.95;0.77;;;;;;;;;;6274950;28;20107;-75
2022/09/20 11:55:49;;;;;;;0.32;0.32;;;;;;;;;;6264565;28;20048;-75
2022/09/20 11:58:54;;;;;;;1.17;0.88;;;;;;;;;;6260794;28;20025;-75
2022/09/20 12:01:58;;;;;;;0.32;0.32;;;;;;;;;;6266919;28;20013;-75
2022/09/20 12:05:00;;;;;;;1.95;0.55;;;;;;;;;;6264823;28;20024;-75
2022/09/20 12:08:02;;;;;;;0.60;0.60;;;;;;;;;;6264071;28;20013;-75
2022/09/20 12:11:04;;;;;;;4.20;1.52;;;;;;;;;;6266185;28;20515;-75
2022/09/20 12:14:04;;;;;;;;;;;;;;;;;;6266839;28;20086;-75
2022/09/20 12:17:04;;;;;;;0.22;0.22;;;;;;;;;;6277994;28;19904;-75
2022/09/20 12:20:23;;;;;;;0.20;0.20;;;;;;;;;;6273536;28;20306;-75
2022/09/20 12:23:39;;;;;;;0.90;0.50;;;;;;;;;;6269530;28;20083;-75
2022/09/20 12:26:40;;;;;;;0.20;0.20;;;;;;;;;;6265105;28;20013;-76
2022/09/20 12:29:53;;;;;;;0.52;0.52;;;;;;;;;;6243283;28;20078;-76
2022/09/20 12:32:55;;;;;;;2.28;1.58;;;;;;;;;;6259907;28;20045;-74
2022/09/20 12:35:59;;;;;;;0.90;0.90;;;;;;;;;;6272427;28;20047;-73
2022/09/20 12:39:02;;;;;;;0.70;0.70;;;;;;;;;;6272359;28;20401;-73
2022/09/20 12:42:11;;;;;;;0.22;0.22;;;;;;;;;;6274833;28;20473;-74
2022/09/20 12:45:17;;;;;;;0.43;0.43;;;;;;;;;;6272619;28;20013;-74
2022/09/20 12:48:18;;;;;;;0.10;0.10;;;;;;;;;;6272722;28;20052;-73
2022/09/20 12:54:48;;;;;;;1.30;1.20;;;;;;;;;;6277264;28;20104;-73
2022/09/20 12:57:53;;;;;;;1.20;1.10;;;;;;;;;;6265227;28;20041;-73
2022/09/20 13:00:57;;;;;;;1.77;1.67;;;;;;;;;;6261052;28;20017;-75
2022/09/20 13:04:16;;;;;;;0.50;0.50;;;;;;;;;;6240370;28;20028;-75
2022/09/20 13:07:39;;;;;;;1.10;1.10;;;;;;;;;;6257650;28;20027;-75
2022/09/20 13:10:42;;;;;;;0.63;0.50;;;;;;;;;;6258774;28;20112;-74
2022/09/20 13:13:58;;;;;;;0.28;0.28;;;;;;;;;;6251116;28;20020;-74
2022/09/20 13:17:05;;;;;;;0.70;0.70;;;;;;;;;;6264797;28;20041;-74
2022/09/20 13:20:13;;;;;;;4.35;2.90;;;;;;;;;;6250506;28;20028;-74
2022/09/20 13:23:17;;;;;;;0.82;0.82;;;;;;;;;;6267981;28;20478;-74
2022/09/20 13:26:21;;;;;;;0.80;0.70;;;;;;;;;;6259967;28;20017;-74
2022/09/20 13:29:24;;;;;;;1.20;1.20;;;;;;;;;;6261827;28;20016;-74
2022/09/20 13:32:25;;;;;;;0.10;0.10;;;;;;;;;;6263395;28;20051;-73
2022/09/20 13:35:31;;;;;;;2.08;0.50;;;;;;;;;;6260413;28;20029;-73
2022/09/20 13:38:31;;;;;;;0.20;0.20;;;;;;;;;;6255335;28;20064;-72
2022/09/20 13:41:34;;;;;;;1.33;1.23;;;;;;;;;;6253726;28;20392;-73
2022/09/20 13:44:36;;;;;;;0.25;0.25;;;;;;;;;;6265975;28;20021;-74
2022/09/20 13:47:40;;;;;;;1.25;1.15;;;;;;;;;;6245401;28;20025;-74
2022/09/20 13:50:40;;;;;;;0.57;0.57;;;;;;;;;;6262623;28;20082;-74
2022/09/20 13:53:40;;;;;;;0.53;0.47;;;;;;;;;;6260187;28;20040;-74
2022/09/20 13:56:41;;;;;;;0.60;0.25;;;;;;;;;;6266050;28;20101;-75
2022/09/20 13:59:43;;;;;;;1.80;1.67;;;;;;;;;;6244275;28;20466;-75
2022/09/20 14:02:46;;;;;;;0.93;0.88;;;;;;;;;;6264651;28;20029;-75
2022/09/20 14:05:48;;;;;;;0.13;0.13;;;;;;;;;;6253127;28;20017;-75
2022/09/20 14:08:48;;;;;;;;;;;;;;;;;;6269955;28;20037;-75
2022/09/20 14:11:48;;;;;;;0.70;0.60;;;;;;;;;;6257520;28;19963;-74
2022/09/20 14:14:49;;;;;;;0.10;0.10;;;;;;;;;;6270837;28;20115;-74
2022/09/20 14:17:52;;;;;;;0.20;0.20;;;;;;;;;;6268947;28;20040;-74
2022/09/20 14:20:54;;;;;;;0.10;0.10;;;;;;;;;;6256099;28;20017;-75
2022/09/20 14:23:57;;;;;;;0.10;0.10;;;;;;;;;;6265915;28;20021;-75
2022/09/20 14:27:17;;;;;;;0.40;0.40;;;;;;;;;;6281537;28;20025;-76
2022/09/20 14:30:36;;;;;;;0.43;0.25;;;;;;;;;;6243637;28;20059;-75
2022/09/20 14:33:41;;;;;;;0.70;0.70;;;;;;;;;;6260879;28;20021;-74
2022/09/20 14:36:42;;;;;;;0.70;0.70;;;;;;;;;;6253282;28;20033;-74
2022/09/20 14:39:46;;;;;;;1.23;0.70;;;;;;;;;;6261055;28;20122;-75
2022/09/20 14:42:47;;;;;;;0.50;0.50;;;;;;;;;;6262688;28;20396;-75
2022/09/20 14:45:52;;;;;;;0.10;0.10;;;;;;;;;;6274336;28;20409;-75
2022/09/20 14:48:52;;;;;;;0.43;0.40;;;;;;;;;;6258733;28;20051;-75
2022/09/20 14:51:53;;;;;;;0.10;0.10;;;;;;;;;;6254994;28;20021;-74
2022/09/20 14:55:00;;;;;;;0.10;0.10;;;;;;;;;;6253269;28;20025;-75
2022/09/20 14:58:10;;;;;;;0.32;0.20;;;;;;;;;;6259713;28;20033;-75
2022/09/20 15:01:23;;;;;;;0.38;0.38;;;;;;;;;;6269677;28;20081;-75
2022/09/20 15:04:24;;;;;;;1.40;0.90;;;;;;;;;;6266294;28;20048;-75
2022/09/20 15:07:24;;;;;;;0.23;0.23;;;;;;;;;;6244374;28;20029;-75
2022/09/20 15:10:24;;;;;;;0.30;0.30;;;;;;;;;;6266730;28;20020;-75
2022/09/20 15:13:25;;;;;;;1.15;0.98;;;;;;;;;;6240697;28;20021;-75
2022/09/20 15:16:26;;;;;;;0.10;0.10;;;;;;;;;;6272421;28;20358;-75
2022/09/20 15:19:26;;;;;;;0.10;0.10;;;;;;;;;;6248177;28;20021;-75
2022/09/20 15:22:26;;;;;;;0.10;0.10;;;;;;;;;;6265679;28;20017;-75
2022/09/20 15:25:28;;;;;;;1.40;1.20;;;;;;;;;;6263706;28;20013;-76
2022/09/20 15:28:31;;;;;;;0.52;0.52;;;;;;;;;;6269745;28;20033;-75
2022/09/20 15:31:31;;;;;;;1.50;1.35;;;;;;;;;;6270040;28;20040;-75
2022/09/20 15:34:31;;;;;;;2.15;1.42;;;;;;;;;;6270589;28;20112;-75
2022/09/20 15:37:32;;;;;;;13.30;7.27;;;;;;;;;;6277185;28;20039;-75
2022/09/20 15:40:33;;;;;;;9.23;5.13;;;;;;;;;;6274210;28;20397;-75
2022/09/20 15:43:33;;;;;;;7.30;2.42;;;;;;;;;;6256453;28;20027;-75
2022/09/20 15:46:34;;;;;;;0.57;0.57;;;;;;;;;;6272061;28;20021;-75
2022/09/20 15:49:34;;;;;;;1.30;1.20;;;;;;;;;;6254257;28;20412;-75
2022/09/20 15:52:35;;;;;;;0.57;0.57;;;;;;;;;;6254846;28;20120;-75
2022/09/20 15:55:35;;;;;;;1.45;1.35;;;;;;;;;;6282525;28;20086;-74
2022/09/20 15:58:36;;;;;;;2.13;1.27;;;;;;;;;;6246568;28;20029;-75
2022/09/20 16:01:40;;;;;;;0.70;0.70;;;;;;;;;;6272835;28;20427;-75
2022/09/20 16:04:40;;;;;;;2.72;1.30;;;;;;;;;;6250111;28;20032;-76
2022/09/20 16:07:41;;;;;;;1.58;1.02;;;;;;;;;;6271370;28;20053;-76
2022/09/20 16:10:41;;;;;;;0.67;0.67;;;;;;;;;;6267272;28;20574;-76
2022/09/20 16:13:41;;;;;;;1.43;1.33;;;;;;;;;;6266242;28;20024;-76
2022/09/20 16:16:41;;;;;;;1.90;1.30;;;;;;;;;;6261470;28;20381;-76
2022/09/20 16:19:43;;;;;;;1.23;1.13;;;;;;;;;;6259932;28;20029;-76
2022/09/20 16:22:43;;;;;;;;;;;;;;;;;;6263409;28;20021;-76
2022/09/20 16:25:49;;;;;;;0.85;0.85;;;;;;;;;;6262183;28;19956;-76
2022/09/20 16:28:49;;;;;;;0.73;0.73;;;;;;;;;;6265501;28;20024;-77
2022/09/20 16:31:50;;;;;;;0.57;0.57;;;;;;;;;;6275633;28;20083;-76
2022/09/20 16:34:53;;;;;;;4.97;3.23;;;;;;;;;;6281295;28;20031;-76
2022/09/20 16:37:53;;;;;;;5.65;4.75;;;;;;;;;;6266145;28;20025;-76
2022/09/20 16:40:54;;;;;;;3.13;2.87;;;;;;;;;;6240642;28;20127;-76
2022/09/20 16:43:54;;;;;;;3.03;2.77;;;;;;;;;;6239369;28;20391;-76
2022/09/20 16:46:54;;;;;;;0.93;0.93;;;;;;;;;;6241824;28;20084;-76
2022/09/20 16:49:55;;;;;;;3.47;3.17;;;;;;;;;;6259667;28;20028;-76
2022/09/20 16:52:55;;;;;;;8.77;6.63;;;;;;;;;;6258192;28;20025;-76
2022/09/20 16:55:55;;;;;;;3.27;3.07;;;;;;;;;;6257562;28;20029;-76
2022/09/20 16:58:55;;;;;;;8.77;5.03;;;;;;;;;;6243908;28;20116;-76
2022/09/20 17:01:56;;;;;;;6.93;3.43;;;;;;;;;;6259236;28;20438;-75
2022/09/20 17:04:56;;;;;;;4.30;3.90;;;;;;;;;;6263146;28;20029;-76
2022/09/20 17:07:56;;;;;;;22.75;4.22;;;;;;;;;;6265114;28;20108;-76
2022/09/20 17:11:00;;;;;;;4.80;4.40;;;;;;;;;;6262322;28;20025;-75
2022/09/20 17:14:00;;;;;;;4.82;4.43;;;;;;;;;;6273487;28;20109;-75
2022/09/20 17:17:00;;;;;;;7.00;4.90;;;;;;;;;;6247403;28;20017;-76
2022/09/20 17:20:03;;;;;;;10.13;5.47;;;;;;;;;;6252381;28;20051;-76
2022/09/20 17:23:06;;;;;;;5.78;4.80;;;;;;;;;;6266903;28;20477;-76
2022/09/20 17:26:10;;;;;;;6.55;5.93;;;;;;;;;;6280524;28;20070;-75
2022/09/20 17:29:15;;;;;;;4.82;4.43;;;;;;;;;;6257332;28;20025;-76
2022/09/20 17:32:16;;;;;;;9.13;4.65;;;;;;;;;;6275513;28;20045;-76
2022/09/20 17:35:17;;;;;;;9.20;7.50;;;;;;;;;;6250610;28;20465;-75
2022/09/20 17:38:17;;;;;;;5.40;5.03;;;;;;;;;;6264748;28;20507;-76
2022/09/20 17:41:18;;;;;;;4.00;3.80;;;;;;;;;;6276301;28;20012;-75
2022/09/20 17:44:18;;;;;;;4.93;4.50;;;;;;;;;;6258272;28;20037;-75
2022/09/20 17:47:21;;;;;;;4.10;3.80;;;;;;;;;;6257470;28;20028;-76
2022/09/20 17:50:21;;;;;;;8.55;7.80;;;;;;;;;;6255669;28;20491;-76
2022/09/20 17:53:21;;;;;;;2.53;2.33;;;;;;;;;;6265037;28;20032;-76
2022/09/20 17:56:27;;;;;;;10.43;6.60;;;;;;;;;;6256112;28;20025;-76
2022/09/20 17:59:27;;;;;;;14.07;6.22;;;;;;;;;;6256679;28;20025;-75
2022/09/20 18:02:27;;;;;;;24.13;6.77;;;;;;;;;;6268925;28;20112;-75
2022/09/20 18:05:28;;;;;;;10.40;7.15;;;;;;;;;;6258528;28;20209;-75
2022/09/20 18:08:28;;;;;;;13.10;6.47;;;;;;;;;;6255794;28;20116;-75
2022/09/20 18:11:33;;;;;;;10.98;4.78;;;;;;;;;;6257145;28;20086;-75
2022/09/20 18:14:33;;;;;;;3.08;2.65;;;;;;;;;;6276255;28;20033;-76
2022/09/20 18:17:34;;;;;;;7.23;4.57;;;;;;;;;;6288371;28;20039;-75
2022/09/20 18:20:34;;;;;;;10.90;6.77;;;;;;;;;;6265555;28;20044;-76
2022/09/20 18:23:34;;;;;;;6.40;5.90;;;;;;;;;;6257261;28;20018;-76
2022/09/20 18:26:35;;;;;;;4.63;4.23;;;;;;;;;;6270101;28;20108;-75
2022/09/20 18:29:36;;;;;;;6.10;5.53;;;;;;;;;;6270116;28;20035;-76
2022/09/20 18:32:36;;;;;;;2.22;2.08;;;;;;;;;;6255816;28;20076;-75
2022/09/20 18:35:40;;;;;;;3.10;2.47;;;;;;;;;;6270655;28;20353;-75
2022/09/20 18:38:42;;;;;;;3.95;3.03;;;;;;;;;;6254710;28;20037;-75
2022/09/20 18:41:42;;;;;;;4.85;2.70;;;;;;;;;;6261439;28;20461;-75
2022/09/20 18:44:44;;;;;;;6.30;4.10;;;;;;;;;;6246154;28;20013;-75
2022/09/20 18:47:45;;;;;;;3.53;2.45;;;;;;;;;;6266974;28;20021;-76
2022/09/20 18:51:14;;;;;;;24.48;4.72;;;;;;;;;;6269750;28;20037;-75
2022/09/20 18:54:15;;;;;;;2.10;1.90;;;;;;;;;;6226450;28;20393;-76
2022/09/20 18:57:15;;;;;;;3.38;3.17;;;;;;;;;;6258037;28;20029;-75